.
WxDataArchive / Data Records for 2006-08-29
2006-08-28 August 2006 2006-08-30

Data Records for Tuesday, 29 August 2006

Time	Temp	Chill	HIndex	Humid	Dewpt	 Wind 	HiWind	WindDir	Rain 	Barom 
-----	----	-----	------	-----	-----	------	------	-------	-----	----- 
00:00	64.2	64.2	64.2	95	62.7	1	3	90	0.00	29.730 
00:05	64.2	64.2	64.2	95	62.7	1	4	90	0.00	29.730 
00:10	64.2	64.2	64.2	95	62.7	1	3	90	0.00	29.730 
00:15	64.2	64.2	64.2	96	63.0	0	2	90	0.00	29.729 
00:20	64.2	64.2	64.2	96	63.0	0	2	90	0.00	29.729 
00:25	64.2	64.2	64.2	96	63.0	0	1	90	0.00	29.729 
00:30	64.0	64.0	64.0	96	62.8	0	2	90	0.00	29.721 
00:35	64.0	64.0	64.0	96	62.8	0	2	90	0.00	29.721 
00:40	64.2	64.2	64.2	96	63.0	1	2	90	0.00	29.721 
00:45	64.2	64.2	64.2	96	63.0	0	1	90	0.00	29.726 
00:50	64.2	64.2	64.2	96	63.0	0	3	68	0.00	29.726 
00:55	64.2	64.2	64.2	96	63.0	0	1	68	0.00	29.726 
01:00	64.3	64.3	64.3	96	63.1	0	2	68	0.00	29.728 
01:05	64.3	64.3	64.3	96	63.1	0	1	68	0.00	29.728 
01:10	64.3	64.3	64.3	96	63.1	0	3	68	0.00	29.728 
01:15	64.3	64.3	64.3	96	63.1	1	2	68	0.00	29.727 
01:20	64.5	64.5	64.5	96	63.3	0	2	68	0.00	29.727 
01:25	64.5	64.5	64.5	96	63.3	0	3	112	0.00	29.727 
01:30	64.5	64.5	64.5	96	63.3	0	2	112	0.00	29.727 
01:35	64.5	64.5	64.5	96	63.3	0	1	112	0.00	29.727 
01:40	64.5	64.5	64.5	96	63.3	0	1	112	0.00	29.727 
01:45	64.7	64.7	64.7	96	63.5	0	1	112	0.00	29.726 
01:50	64.5	64.5	64.5	96	63.3	0	2	112	0.00	29.726 
01:55	64.5	64.5	64.5	96	63.3	1	4	68	0.00	29.726 
02:00	64.5	64.5	64.5	96	63.3	1	3	112	0.00	29.724 
02:05	64.5	64.5	64.5	96	63.3	1	3	90	0.00	29.724 
02:10	64.5	64.5	64.5	96	63.3	0	3	68	0.00	29.724 
02:15	64.5	64.5	64.5	96	63.3	0	2	90	0.00	29.726 
02:20	64.5	64.5	64.5	96	63.3	0	1	90	0.00	29.726 
02:25	64.5	64.5	64.5	96	63.3	0	3	90	0.00	29.726 
02:30	64.5	64.5	64.5	96	63.3	0	3	112	0.00	29.726 
02:35	64.5	64.5	64.5	96	63.3	0	1	112	0.00	29.726 
02:40	64.5	64.5	64.5	96	63.3	0	1	112	0.00	29.726 
02:45	64.5	64.5	64.5	96	63.3	0	1	112	0.00	29.720 
02:50	64.5	64.5	64.5	96	63.3	0	2	112	0.00	29.720 
02:55	64.5	64.5	64.5	96	63.3	0	3	135	0.00	29.720 
03:00	64.5	64.5	64.5	96	63.3	0	1	135	0.00	29.718 
03:05	64.5	64.5	64.5	96	63.3	0	2	90	0.00	29.718 
03:10	64.5	64.5	64.5	96	63.3	0	3	112	0.00	29.718 
03:15	64.5	64.5	64.5	96	63.3	0	2	112	0.00	29.715 
03:20	64.5	64.5	64.5	96	63.3	0	2	112	0.00	29.715 
03:25	64.5	64.5	64.5	96	63.3	0	0	---	0.00	29.715 
03:30	64.5	64.5	64.5	96	63.3	0	2	112	0.00	29.718 
03:35	64.7	64.7	64.7	96	63.5	0	1	135	0.00	29.718 
03:40	64.7	64.7	64.7	96	63.5	0	2	135	0.00	29.718 
03:45	64.7	64.7	64.7	97	63.8	0	3	135	0.00	29.724 
03:50	64.7	64.7	64.7	96	63.5	0	0	---	0.00	29.724 
03:55	64.7	64.7	64.7	97	63.8	0	1	135	0.00	29.724 
04:00	64.7	64.7	64.7	97	63.8	0	1	135	0.00	29.725 
04:05	64.7	64.7	64.7	97	63.8	0	2	135	0.00	29.725 
04:10	64.7	64.7	64.7	97	63.8	0	2	135	0.00	29.725 
04:15	64.7	64.7	64.7	97	63.8	0	0	---	0.00	29.732 
04:20	64.7	64.7	64.7	97	63.8	0	1	135	0.00	29.732 
04:25	64.5	64.5	64.5	97	63.6	0	3	112	0.00	29.732 
04:30	64.5	64.5	64.5	97	63.6	1	7	158	0.00	29.732 
04:35	64.5	64.5	64.5	97	63.6	1	4	135	0.00	29.732 
04:40	64.3	64.3	64.3	96	63.1	1	4	112	0.00	29.732 
04:45	64.3	64.3	64.3	96	63.1	1	3	68	0.00	29.730 
04:50	64.2	64.2	64.2	96	63.0	1	3	112	0.00	29.730 
04:55	64.2	64.2	64.2	96	63.0	1	2	112	0.01	29.730 
05:00	64.2	64.2	64.2	96	63.0	1	4	90	0.00	29.729 
05:05	64.0	64.0	64.0	96	62.8	1	6	135	0.00	29.729 
05:10	63.9	63.9	63.9	96	62.7	1	5	90	0.00	29.729 
05:15	63.9	63.9	63.9	96	62.7	1	4	135	0.00	29.741 
05:20	63.7	63.7	63.7	96	62.5	1	3	112	0.00	29.741 
05:25	63.7	63.7	63.7	96	62.5	1	3	135	0.00	29.741 
05:30	63.5	63.5	63.5	96	62.3	0	3	45	0.00	29.744 
05:35	63.5	63.5	63.5	96	62.3	1	3	68	0.00	29.744 
05:40	63.5	63.5	63.5	96	62.3	0	3	68	0.00	29.744 
05:45	63.5	63.5	63.5	96	62.3	0	2	112	0.00	29.743 
05:50	63.5	63.5	63.5	96	62.3	0	1	112	0.00	29.743 
05:55	63.5	63.5	63.5	96	62.3	1	2	112	0.00	29.743 
06:00	63.5	63.5	63.5	96	62.3	0	1	112	0.00	29.747 
06:05	63.7	63.7	63.7	96	62.5	0	0	---	0.00	29.747 
06:10	63.7	63.7	63.7	96	62.5	0	1	112	0.00	29.747 
06:15	63.5	63.5	63.5	96	62.3	0	3	112	0.00	29.747 
06:20	63.4	63.4	63.4	96	62.2	1	4	135	0.00	29.747 
06:25	63.4	63.4	63.4	96	62.2	0	2	135	0.00	29.747 
06:30	63.4	63.4	63.4	96	62.2	0	2	135	0.00	29.758 
06:35	63.2	63.2	63.2	96	62.0	0	2	112	0.00	29.758 
06:40	63.1	63.1	63.1	96	61.9	1	6	158	0.00	29.758 
06:45	62.9	62.9	62.9	96	61.7	0	2	112	0.00	29.764 
06:50	62.7	62.7	62.7	96	61.5	0	3	112	0.00	29.764 
06:55	62.6	62.6	62.6	96	61.4	0	1	112	0.00	29.764 
07:00	62.3	62.3	62.3	96	61.1	0	1	112	0.00	29.765 
07:05	62.1	62.1	62.1	96	60.9	0	1	112	0.00	29.765 
07:10	62.1	62.1	62.1	96	60.9	0	3	112	0.00	29.765 
07:15	62.0	62.0	62.0	96	60.8	0	4	112	0.00	29.770 
07:20	61.8	61.8	61.8	96	60.6	1	2	112	0.00	29.770 
07:25	61.8	61.8	61.8	96	60.6	1	3	112	0.00	29.770 
07:30	61.8	61.8	61.8	96	60.6	0	1	112	0.00	29.774 
07:35	61.8	61.8	61.8	96	60.6	0	3	135	0.00	29.774 
07:40	61.6	61.6	61.6	96	60.4	1	3	112	0.00	29.774 
07:45	61.8	61.8	61.8	96	60.6	0	3	112	0.00	29.779 
07:50	61.6	61.6	61.6	96	60.4	0	2	112	0.00	29.779 
07:55	61.6	61.6	61.6	96	60.4	0	4	112	0.00	29.779 
08:00	61.6	61.6	61.6	96	60.4	0	2	112	0.00	29.789 
08:05	61.6	61.6	61.6	96	60.4	0	2	112	0.00	29.789 
08:10	61.5	61.5	61.5	96	60.3	0	3	112	0.00	29.789 
08:15	61.5	61.5	61.5	96	60.3	1	3	135	0.00	29.799 
08:20	61.5	61.5	61.5	95	60.1	0	3	112	0.00	29.799 
08:25	61.5	61.5	61.5	95	60.1	0	1	112	0.00	29.799 
08:30	61.5	61.5	61.5	95	60.1	0	4	112	0.00	29.805 
08:35	61.5	61.5	61.5	95	60.1	0	3	135	0.00	29.805 
08:40	61.5	61.5	61.5	95	60.1	1	2	135	0.00	29.805 
08:45	61.5	61.5	61.5	95	60.1	1	4	68	0.00	29.804 
08:50	61.6	61.6	61.6	95	60.2	1	4	90	0.00	29.804 
08:55	61.6	61.6	61.6	95	60.2	0	2	90	0.00	29.804 
09:00	61.8	61.8	61.8	95	60.3	0	2	90	0.00	29.809 
09:05	61.8	61.8	61.8	95	60.3	0	3	112	0.00	29.809 
09:10	61.8	61.8	61.8	95	60.3	0	4	90	0.00	29.809 
09:15	61.8	61.8	61.8	95	60.3	0	2	90	0.00	29.812 
09:20	62.0	62.0	62.0	95	60.5	0	2	90	0.00	29.812 
09:25	62.0	62.0	62.0	95	60.5	1	3	90	0.00	29.812 
09:30	62.0	62.0	62.0	95	60.5	0	1	90	0.00	29.814 
09:35	62.1	62.1	62.1	95	60.6	0	1	90	0.00	29.814 
09:40	62.0	62.0	62.0	95	60.5	1	3	90	0.00	29.814 
09:45	62.0	62.0	62.0	95	60.5	1	2	90	0.00	29.814 
09:50	62.0	62.0	62.0	95	60.5	1	3	68	0.00	29.814 
09:55	62.1	62.1	62.1	95	60.6	0	2	68	0.00	29.814 
10:00	62.3	62.3	62.3	95	60.8	0	3	90	0.00	29.815 
10:05	62.3	62.3	62.3	95	60.8	0	2	90	0.00	29.815 
10:10	62.1	62.1	62.1	95	60.6	1	4	112	0.00	29.815 
10:15	62.1	62.1	62.1	95	60.6	0	3	112	0.01	29.827 
10:20	62.1	62.1	62.1	95	60.6	0	2	112	0.00	29.827 
10:25	62.1	62.1	62.1	95	60.6	1	4	90	0.00	29.827 
10:30	62.1	62.1	62.1	95	60.6	1	3	112	0.00	29.830 
10:35	62.4	62.4	62.4	96	61.2	0	1	112	0.00	29.830 
10:40	62.6	62.6	62.6	96	61.4	1	3	68	0.00	29.830 
10:45	62.6	62.6	62.6	96	61.4	1	4	68	0.00	29.831 
10:50	62.6	62.6	62.6	96	61.4	1	4	90	0.00	29.831 
10:55	62.6	62.6	62.6	96	61.4	1	3	90	0.00	29.831 
11:00	62.6	62.6	62.6	95	61.1	2	4	90	0.00	29.840 
11:05	62.6	62.6	62.6	95	61.1	2	4	45	0.00	29.840 
11:10	62.6	62.6	62.6	95	61.1	1	3	90	0.00	29.840 
11:15	62.6	62.6	62.6	95	61.1	1	4	68	0.00	29.846 
11:20	62.9	62.9	62.9	95	61.4	0	2	68	0.00	29.846 
11:25	63.1	63.1	63.1	95	61.6	1	2	68	0.00	29.846 
11:30	63.1	63.1	63.1	95	61.6	1	3	135	0.00	29.848 
11:35	63.1	63.1	63.1	95	61.6	1	2	112	0.00	29.848 
11:40	63.2	63.2	63.2	95	61.7	1	3	90	0.00	29.848 
11:45	63.4	63.4	63.4	95	61.9	1	4	90	0.00	29.850 
11:50	63.4	63.4	63.4	95	61.9	1	3	112	0.00	29.850 
11:55	63.4	63.4	63.4	95	61.9	2	4	90	0.01	29.850 
12:00	63.5	63.5	63.5	95	62.0	1	4	90	0.00	29.848 
12:05	63.7	63.7	63.7	95	62.2	1	4	112	0.00	29.848 
12:10	63.5	63.5	63.5	94	61.7	2	5	112	0.00	29.848 
12:15	63.5	63.5	63.5	94	61.7	2	5	112	0.00	29.845 
12:20	63.5	63.5	63.5	94	61.7	2	5	90	0.00	29.845 
12:25	63.4	63.4	63.4	93	61.3	3	9	90	0.00	29.845 
12:30	63.5	63.5	63.5	93	61.4	2	7	90	0.00	29.846 
12:35	63.4	63.4	63.4	91	60.7	4	8	90	0.00	29.846 
12:40	63.5	63.5	63.5	91	60.8	2	5	90	0.00	29.846 
12:45	63.7	63.7	63.7	90	60.7	2	7	90	0.00	29.844 
12:50	64.2	64.2	64.2	92	61.8	1	4	112	0.00	29.844 
12:55	64.3	64.3	64.3	90	61.3	2	6	112	0.00	29.844 
13:00	64.5	64.5	64.5	89	61.2	2	5	90	0.00	29.843 
13:05	64.8	64.8	64.8	87	60.8	3	7	90	0.00	29.843 
13:10	65.3	65.3	65.3	86	61.0	2	5	112	0.00	29.843 
13:15	65.6	65.6	65.6	85	61.0	3	7	90	0.00	29.840 
13:20	65.8	65.8	65.8	84	60.8	3	7	90	0.00	29.840 
13:25	65.8	65.8	65.8	84	60.8	2	5	90	0.00	29.840 
13:30	65.8	65.8	65.8	83	60.5	3	7	90	0.00	29.840 
13:35	66.0	66.0	66.0	83	60.7	2	7	90	0.00	29.840 
13:40	66.0	66.0	66.0	84	61.0	1	4	90	0.00	29.840 
13:45	66.1	66.1	66.1	84	61.1	2	5	90	0.00	29.841 
13:50	66.3	66.3	66.3	82	60.6	3	8	90	0.00	29.841 
13:55	66.4	66.4	66.4	84	61.4	2	4	112	0.00	29.841 
14:00	66.6	66.6	66.6	83	61.3	3	6	90	0.00	29.840 
14:05	66.4	66.4	66.4	82	60.7	3	9	90	0.00	29.840 
14:10	66.4	66.4	66.4	82	60.7	3	6	90	0.00	29.840 
14:15	66.4	66.4	66.4	83	61.1	2	5	90	0.00	29.838 
14:20	66.4	66.4	66.4	84	61.4	2	5	112	0.00	29.838 
14:25	66.4	66.4	66.4	84	61.4	1	4	90	0.00	29.838 
14:30	66.4	66.4	66.4	85	61.7	1	3	90	0.00	29.839 
14:35	66.4	66.4	66.4	85	61.7	2	5	90	0.00	29.839 
14:40	66.4	66.4	66.4	86	62.1	1	3	90	0.00	29.839 
14:45	66.6	66.6	66.6	87	62.6	1	2	112	0.00	29.839 
14:50	66.4	66.4	66.4	87	62.4	2	5	90	0.00	29.839 
14:55	66.3	66.3	66.3	88	62.6	2	5	90	0.00	29.839 
15:00	66.0	66.0	66.0	88	62.3	2	4	68	0.00	29.840 
15:05	65.8	65.8	65.8	90	62.8	1	3	112	0.00	29.840 
15:10	65.8	65.8	65.8	91	63.1	1	3	112	0.00	29.840 
15:15	65.6	65.6	65.6	90	62.6	1	4	112	0.00	29.840 
15:20	65.5	65.5	65.5	91	62.8	1	5	90	0.00	29.840 
15:25	65.5	65.5	65.5	91	62.8	1	4	112	0.00	29.840 
15:30	65.5	65.5	65.5	92	63.1	1	5	22	0.00	29.838 
15:35	65.5	65.5	65.5	92	63.1	1	3	90	0.00	29.838 
15:40	65.5	65.5	65.5	92	63.1	0	2	90	0.00	29.838 
15:45	65.5	65.5	65.5	93	63.4	1	3	112	0.00	29.835 
15:50	65.5	65.5	65.5	93	63.4	0	2	112	0.00	29.835 
15:55	65.5	65.5	65.5	93	63.4	1	2	112	0.00	29.835 
16:00	65.6	65.6	65.6	93	63.5	0	2	112	0.00	29.831 
16:05	65.6	65.6	65.6	93	63.5	0	1	112	0.00	29.831 
16:10	65.6	65.6	65.6	93	63.5	0	1	90	0.00	29.831 
16:15	65.5	65.5	65.5	93	63.4	0	1	112	0.00	29.831 
16:20	65.5	65.5	65.5	93	63.4	0	1	112	0.00	29.831 
16:25	65.3	65.3	65.3	93	63.2	0	3	112	0.00	29.831 
16:30	65.3	65.3	65.3	93	63.2	1	3	112	0.00	29.832 
16:35	65.3	65.3	65.3	94	63.5	0	1	112	0.01	29.832 
16:40	65.3	65.3	65.3	94	63.5	1	2	112	0.00	29.832 
16:45	65.3	65.3	65.3	94	63.5	0	2	112	0.00	29.832 
16:50	65.3	65.3	65.3	95	63.8	0	1	112	0.00	29.832 
16:55	65.3	65.3	65.3	95	63.8	1	2	112	0.00	29.832 
17:00	65.3	65.3	65.3	95	63.8	1	3	112	0.00	29.840 
17:05	65.3	65.3	65.3	95	63.8	0	1	112	0.00	29.840 
17:10	65.5	65.5	65.5	95	64.0	0	2	112	0.00	29.840 
17:15	65.3	65.3	65.3	95	63.8	1	3	112	0.01	29.843 
17:20	65.3	65.3	65.3	95	63.8	0	2	112	0.00	29.843 
17:25	65.3	65.3	65.3	95	63.8	0	2	112	0.00	29.843 
17:30	65.5	65.5	65.5	95	64.0	0	2	112	0.00	29.842 
17:35	65.5	65.5	65.5	95	64.0	1	3	112	0.01	29.842 
17:40	65.3	65.3	65.3	95	63.8	2	4	90	0.00	29.842 
17:45	65.3	65.3	65.3	95	63.8	1	2	90	0.00	29.842 
17:50	65.3	65.3	65.3	95	63.8	1	3	90	0.00	29.842 
17:55	65.3	65.3	65.3	95	63.8	2	6	45	0.00	29.842 
18:00	65.2	65.2	65.2	95	63.7	3	7	112	0.00	29.845 
18:05	65.2	65.2	65.2	95	63.7	2	4	90	0.00	29.845 
18:10	65.3	65.3	65.3	95	63.8	1	3	112	0.00	29.845 
18:15	65.3	65.3	65.3	95	63.8	2	4	112	0.00	29.853 
18:20	65.3	65.3	65.3	95	63.8	2	3	90	0.00	29.853 
18:25	65.2	65.2	65.2	94	63.4	2	7	90	0.00	29.853 
18:30	65.2	65.2	65.2	94	63.4	2	6	90	0.00	29.858 
18:35	65.2	65.2	65.2	95	63.7	1	4	112	0.01	29.858 
18:40	65.3	65.3	65.3	95	63.8	1	3	112	0.00	29.858 
18:45	65.2	65.2	65.2	95	63.7	2	4	112	0.00	29.860 
18:50	65.0	65.0	65.0	95	63.5	1	3	112	0.00	29.860 
18:55	64.8	64.8	64.8	95	63.3	1	3	112	0.00	29.860 
19:00	64.7	64.7	64.7	95	63.2	1	4	112	0.00	29.861 
19:05	64.7	64.7	64.7	95	63.2	2	7	112	0.01	29.861 
19:10	64.7	64.7	64.7	95	63.2	1	2	112	0.00	29.861 
19:15	64.7	64.7	64.7	95	63.2	2	7	112	0.00	29.861 
19:20	64.5	64.5	64.5	95	63.0	2	6	112	0.00	29.861 
19:25	64.5	64.5	64.5	95	63.0	2	5	112	0.00	29.861 
19:30	64.5	64.5	64.5	95	63.0	2	5	45	0.00	29.862 
19:35	64.5	64.5	64.5	95	63.0	1	4	90	0.00	29.862 
19:40	64.5	64.5	64.5	95	63.0	1	3	90	0.00	29.862 
19:45	64.5	64.5	64.5	96	63.3	1	2	90	0.00	29.862 
19:50	64.7	64.7	64.7	96	63.5	1	2	90	0.00	29.862 
19:55	64.7	64.7	64.7	96	63.5	2	5	90	0.00	29.862 
20:00	64.5	64.5	64.5	96	63.3	3	5	90	0.00	29.863 
20:05	64.3	64.3	64.3	95	62.8	2	6	90	0.00	29.863 
20:10	64.2	64.2	64.2	95	62.7	2	4	112	0.00	29.863 
20:15	64.0	64.0	64.0	95	62.5	3	7	90	0.00	29.863 
20:20	64.0	64.0	64.0	95	62.5	2	4	90	0.00	29.863 
20:25	64.0	64.0	64.0	94	62.2	3	7	90	0.00	29.863 
20:30	64.0	64.0	64.0	94	62.2	1	3	90	0.00	29.864 
20:35	64.0	64.0	64.0	94	62.2	3	5	90	0.00	29.864 
20:40	64.0	64.0	64.0	94	62.2	2	6	90	0.00	29.864 
20:45	64.0	64.0	64.0	94	62.2	2	6	112	0.00	29.868 
20:50	64.0	64.0	64.0	94	62.2	2	5	90	0.00	29.868 
20:55	64.0	64.0	64.0	94	62.2	3	6	90	0.00	29.868 
21:00	64.0	64.0	64.0	94	62.2	2	4	90	0.00	29.872 
21:05	64.0	64.0	64.0	94	62.2	1	4	112	0.00	29.872 
21:10	64.0	64.0	64.0	94	62.2	1	3	112	0.00	29.872 
21:15	64.0	64.0	64.0	94	62.2	1	4	112	0.00	29.878 
21:20	64.0	64.0	64.0	95	62.5	1	3	68	0.01	29.878 
21:25	64.0	64.0	64.0	95	62.5	1	5	112	0.00	29.878 
21:30	64.0	64.0	64.0	95	62.5	2	5	90	0.00	29.879 
21:35	63.9	63.9	63.9	95	62.4	1	4	90	0.00	29.879 
21:40	63.9	63.9	63.9	95	62.4	2	5	90	0.00	29.879 
21:45	63.9	63.9	63.9	95	62.4	2	3	90	0.00	29.883 
21:50	63.9	63.9	63.9	95	62.4	1	5	112	0.00	29.883 
21:55	63.9	63.9	63.9	95	62.4	1	3	112	0.00	29.883 
22:00	63.7	63.7	63.7	95	62.2	1	3	90	0.00	29.884 
22:05	63.7	63.7	63.7	95	62.2	1	3	90	0.00	29.884 
22:10	63.7	63.7	63.7	96	62.5	1	4	90	0.00	29.884 
22:15	63.9	63.9	63.9	96	62.7	1	2	90	0.00	29.890 
22:20	63.9	63.9	63.9	96	62.7	0	1	90	0.00	29.890 
22:25	63.9	63.9	63.9	96	62.7	1	3	90	0.00	29.890 
22:30	63.9	63.9	63.9	96	62.7	0	2	90	0.00	29.894 
22:35	63.9	63.9	63.9	96	62.7	0	2	90	0.00	29.894 
22:40	63.9	63.9	63.9	96	62.7	0	1	90	0.00	29.894 
22:45	63.9	63.9	63.9	96	62.7	0	0	---	0.00	29.898 
22:50	64.0	64.0	64.0	96	62.8	0	1	90	0.00	29.898 
22:55	64.0	64.0	64.0	96	62.8	0	2	90	0.01	29.898 
23:00	64.0	64.0	64.0	96	62.8	0	1	90	0.00	29.899 
23:05	64.0	64.0	64.0	96	62.8	0	1	90	0.00	29.899 
23:10	63.9	63.9	63.9	96	62.7	0	1	90	0.00	29.899 
23:15	64.0	64.0	64.0	96	62.8	0	1	90	0.00	29.896 
23:20	64.0	64.0	64.0	96	62.8	0	2	90	0.01	29.896 
23:25	64.0	64.0	64.0	96	62.8	0	1	90	0.00	29.896 
23:30	64.0	64.0	64.0	96	62.8	0	0	---	0.01	29.896 
23:35	64.0	64.0	64.0	96	62.8	0	1	90	0.00	29.896 
23:40	64.0	64.0	64.0	96	62.8	0	1	90	0.01	29.896 
23:45	64.0	64.0	64.0	96	62.8	0	0	---	0.00	29.892 
23:50	64.0	64.0	64.0	96	62.8	0	0	---	0.00	29.892 
23:55	64.0	64.0	64.0	96	62.8	0	0	---	0.00	29.892 

CoCoRaHS
IN-AL-39
A2 Web Hosting
Creative Commons License
GoDaddy
Look for:

loaded 2017-12-13 20:03:26 • last modified 2010-11-18 10:43:29
Privacy PolicyDisclaimer
• wx.awcolley.com is powered by PmWiki v.2002016 •
• all content (unless otherwise noted) © 2017 A W Colley